Time;durP1;ratioP1;P1;durP2;ratioP2;P2;SDS_P1;SDS_P2;PMS_P1;PMS_P2;Temp;Humidity;BMP_temperature;BMP_pressure;BME280_temperature;BME280_humidity;BME280_pressure;Samples;Min_cycle;Max_cycle;Signal;HPM_P1;HPM_P2
2021/06/22 00:01:51;;;;;;;3.95;3.45;;;19.70;99.90;;;;;;5038144;28;20513;-78
2021/06/22 00:04:17;;;;;;;4.13;3.72;;;19.80;99.90;;;;;;5039647;28;20042;-77
2021/06/22 00:06:44;;;;;;;4.63;3.83;;;19.80;99.90;;;;;;5039967;28;20088;-78
2021/06/22 00:09:21;;;;;;;5.32;3.90;;;19.70;99.90;;;;;;5039803;28;20456;-78
2021/06/22 00:11:48;;;;;;;4.28;3.88;;;19.70;99.90;;;;;;5040964;28;20500;-78
2021/06/22 00:14:15;;;;;;;3.80;3.25;;;19.80;99.90;;;;;;5060363;28;20064;-78
2021/06/22 00:16:41;;;;;;;7.75;3.88;;;19.80;99.90;;;;;;5077712;28;20439;-77
2021/06/22 00:19:08;;;;;;;6.32;4.47;;;19.80;99.90;;;;;;5080255;28;20098;-78
2021/06/22 00:21:35;;;;;;;4.40;3.83;;;19.80;99.90;;;;;;5083914;28;20048;-77
2021/06/22 00:24:01;;;;;;;6.18;4.30;;;19.80;99.90;;;;;;5078931;28;20102;-78
2021/06/22 00:26:29;;;;;;;5.93;5.43;;;19.70;99.90;;;;;;5080053;28;20071;-78
2021/06/22 00:28:56;;;;;;;7.18;5.28;;;19.80;99.90;;;;;;5082822;28;20060;-78
2021/06/22 00:31:22;;;;;;;7.32;4.93;;;19.90;99.90;;;;;;5079168;28;20044;-77
2021/06/22 00:33:51;;;;;;;6.88;4.95;;;19.90;99.90;;;;;;5079376;28;20040;-77
2021/06/22 00:36:18;;;;;;;7.45;5.68;;;20.00;99.90;;;;;;5080473;28;20143;-77
2021/06/22 00:38:44;;;;;;;7.85;5.68;;;20.00;99.90;;;;;;5076988;28;20080;-77
2021/06/22 00:41:11;;;;;;;7.22;6.53;;;20.00;99.90;;;;;;5076423;28;20044;-77
2021/06/22 00:43:40;;;;;;;6.72;5.93;;;20.00;99.90;;;;;;5078927;28;20094;-78
2021/06/22 00:46:06;;;;;;;10.50;5.43;;;20.00;99.90;;;;;;5078872;28;20044;-78
2021/06/22 00:48:36;;;;;;;9.07;6.50;;;20.00;99.90;;;;;;5076093;28;20052;-78
2021/06/22 00:51:03;;;;;;;8.15;6.57;;;20.00;99.90;;;;;;5076863;28;20071;-78
2021/06/22 00:53:36;;;;;;;8.30;6.50;;;20.00;99.90;;;;;;5077320;28;20048;-78
2021/06/22 00:56:03;;;;;;;7.28;6.63;;;20.10;99.90;;;;;;5079096;28;20048;-78
2021/06/22 00:58:31;;;;;;;7.20;6.50;;;20.00;99.90;;;;;;5096716;28;20044;-78
2021/06/22 01:01:02;;;;;;;7.82;6.63;;;19.90;99.90;;;;;;5095904;28;20044;-77
2021/06/22 01:03:29;;;;;;;9.90;7.32;;;20.00;99.90;;;;;;5087927;28;20114;-78
2021/06/22 01:05:58;;;;;;;11.07;7.85;;;20.00;99.90;;;;;;5077061;28;20460;-77
2021/06/22 01:08:26;;;;;;;11.52;7.40;;;20.00;99.90;;;;;;5076747;28;20040;-78
2021/06/22 01:10:54;;;;;;;9.15;7.72;;;20.00;99.90;;;;;;5076376;28;20044;-77
2021/06/22 01:13:21;;;;;;;10.02;8.20;;;20.00;99.90;;;;;;5077808;28;20187;-78
2021/06/22 01:15:56;;;;;;;9.48;8.55;;;19.90;99.90;;;;;;5077040;28;20071;-78
2021/06/22 01:18:24;;;;;;;11.05;8.52;;;19.90;99.90;;;;;;5077243;28;20044;-76
2021/06/22 01:20:55;;;;;;;11.32;7.57;;;19.90;99.90;;;;;;5074353;28;20053;-77
2021/06/22 01:23:21;;;;;;;10.05;7.80;;;20.00;99.90;;;;;;5076227;28;20075;-77
2021/06/22 01:25:48;;;;;;;9.07;8.15;;;20.00;99.90;;;;;;5076485;28;20071;-76
2021/06/22 01:28:14;;;;;;;10.82;8.05;;;20.00;99.90;;;;;;5074194;28;20094;-77
2021/06/22 01:30:41;;;;;;;10.80;8.07;;;20.00;99.90;;;;;;5077335;28;20117;-77
2021/06/22 01:33:08;;;;;;;8.63;7.55;;;20.00;99.90;;;;;;5074237;28;20098;-75
2021/06/22 01:35:35;;;;;;;11.35;8.60;;;20.00;99.90;;;;;;5076301;28;20067;-79
2021/06/22 01:38:05;;;;;;;11.52;7.90;;;20.00;99.90;;;;;;5077741;28;20081;-77
2021/06/22 01:40:32;;;;;;;10.20;9.13;;;20.00;99.90;;;;;;5076813;28;20045;-78
2021/06/22 01:43:00;;;;;;;9.40;8.40;;;20.00;99.90;;;;;;5078495;28;20106;-77
2021/06/22 01:45:28;;;;;;;9.15;8.10;;;20.00;99.90;;;;;;5077636;28;20044;-77
2021/06/22 01:47:54;;;;;;;11.20;7.63;;;20.00;99.90;;;;;;5091542;28;20045;-78
2021/06/22 01:50:21;;;;;;;14.70;9.55;;;20.00;99.90;;;;;;5077783;28;20044;-77
2021/06/22 01:52:50;;;;;;;9.73;8.65;;;19.90;99.90;;;;;;5089197;28;20044;-79
2021/06/22 01:58:02;;;;;;;14.10;8.73;;;20.10;99.90;;;;;;5075528;28;20054;-77
2021/06/22 02:00:29;;;;;;;12.02;9.55;;;20.10;99.90;;;;;;5073299;28;20094;-75
2021/06/22 02:02:55;;;;;;;11.18;9.18;;;20.10;99.90;;;;;;5072740;28;20060;-76
2021/06/22 02:05:22;;;;;;;13.20;10.18;;;20.10;99.90;;;;;;5072985;28;20070;-74
2021/06/22 02:07:49;;;;;;;13.63;9.68;;;20.20;99.90;;;;;;5072550;28;20041;-75
2021/06/22 02:10:17;;;;;;;14.98;10.23;;;20.30;99.90;;;;;;5072838;28;20534;-75
2021/06/22 02:12:44;;;;;;;10.85;9.68;;;20.40;99.90;;;;;;5072815;28;20082;-75
2021/06/22 02:15:11;;;;;;;13.68;9.75;;;20.50;99.90;;;;;;5072963;28;20424;-76
2021/06/22 02:17:38;;;;;;;18.10;10.50;;;20.70;99.90;;;;;;5071903;28;20408;-76
2021/06/22 02:20:07;;;;;;;14.13;9.50;;;20.70;99.90;;;;;;5072896;28;20064;-77
2021/06/22 02:22:35;;;;;;;13.00;9.50;;;20.70;99.90;;;;;;5075806;28;20044;-78
2021/06/22 02:25:02;;;;;;;10.85;9.65;;;20.70;99.90;;;;;;5080750;28;20049;-78
2021/06/22 02:27:32;;;;;;;15.88;10.23;;;20.70;99.90;;;;;;5075176;28;20044;-77
2021/06/22 02:30:12;;;;;;;11.32;10.02;;;20.70;99.90;;;;;;5075228;28;20044;-78
2021/06/22 02:32:40;;;;;;;12.90;9.80;;;20.70;99.90;;;;;;5077207;28;20136;-78
2021/06/22 02:35:10;;;;;;;13.75;10.57;;;20.70;99.90;;;;;;5075887;28;20066;-77
2021/06/22 02:37:37;;;;;;;12.13;9.68;;;20.60;99.90;;;;;;5076504;28;20041;-78
2021/06/22 02:40:04;;;;;;;12.20;8.65;;;20.70;99.90;;;;;;5075662;28;20052;-78
2021/06/22 02:42:33;;;;;;;8.90;8.00;;;20.70;99.90;;;;;;5063494;28;20056;-78
2021/06/22 02:44:59;;;;;;;11.15;10.05;;;20.70;99.90;;;;;;5059236;28;20044;-78
2021/06/22 02:47:26;;;;;;;11.10;9.45;;;20.70;99.90;;;;;;5062954;28;20048;-79
2021/06/22 02:49:52;;;;;;;9.75;8.63;;;20.70;99.90;;;;;;5062606;28;20417;-79
2021/06/22 02:52:19;;;;;;;11.18;9.55;;;20.60;99.90;;;;;;5063057;28;20045;-79
2021/06/22 02:54:46;;;;;;;13.52;9.45;;;20.70;99.90;;;;;;5062838;28;20044;-79
2021/06/22 02:57:13;;;;;;;10.13;8.93;;;20.60;99.90;;;;;;5064245;28;20048;-78
2021/06/22 02:59:47;;;;;;;13.27;9.52;;;20.60;99.90;;;;;;5064490;28;20071;-80
2021/06/22 03:02:13;;;;;;;11.27;8.77;;;20.50;99.90;;;;;;5067049;28;20045;-79
2021/06/22 03:04:40;;;;;;;10.68;9.20;;;20.40;99.90;;;;;;5082718;28;20412;-79
2021/06/22 03:07:07;;;;;;;10.43;8.93;;;20.50;99.90;;;;;;5083424;28;20049;-79
2021/06/22 03:09:34;;;;;;;11.25;8.75;;;20.50;99.90;;;;;;5083415;28;20529;-79
2021/06/22 03:12:00;;;;;;;13.57;9.45;;;20.50;99.90;;;;;;5082263;28;20113;-78
2021/06/22 03:14:27;;;;;;;12.52;9.23;;;20.50;99.90;;;;;;5081115;28;20044;-79
2021/06/22 03:16:57;;;;;;;13.10;9.05;;;20.50;99.90;;;;;;5083103;28;20040;-79
2021/06/22 03:19:24;;;;;;;10.15;8.63;;;20.50;99.90;;;;;;5081983;28;20040;-78
2021/06/22 03:21:50;;;;;;;9.93;8.32;;;20.40;99.90;;;;;;5075934;28;20098;-75
2021/06/22 03:24:24;;;;;;;14.50;8.85;;;20.60;99.90;;;;;;5071946;28;20072;-76
2021/06/22 03:26:51;;;;;;;9.93;7.95;;;20.60;99.90;;;;;;5064303;28;20065;-75
2021/06/22 03:29:19;;;;;;;8.95;7.78;;;20.60;99.90;;;;;;5070360;28;20056;-72
2021/06/22 03:31:46;;;;;;;10.85;9.35;;;20.60;99.90;;;;;;5067718;28;20037;-74
2021/06/22 03:34:14;;;;;;;8.85;7.95;;;20.60;99.90;;;;;;5075697;28;20121;-73
2021/06/22 03:36:40;;;;;;;9.98;7.85;;;20.60;99.90;;;;;;5076470;28;20041;-75
2021/06/22 03:39:08;;;;;;;10.45;7.82;;;20.50;99.90;;;;;;5075002;28;20562;-74
2021/06/22 03:41:35;;;;;;;8.82;7.45;;;20.50;99.90;;;;;;5074544;28;20045;-75
2021/06/22 03:44:10;;;;;;;9.52;7.63;;;20.60;99.90;;;;;;5075653;28;20052;-76
2021/06/22 03:46:37;;;;;;;11.10;9.07;;;20.50;99.90;;;;;;5075029;28;20056;-75
2021/06/22 03:49:04;;;;;;;8.75;7.53;;;20.50;99.90;;;;;;5074838;28;20069;-75
2021/06/22 03:51:31;;;;;;;10.60;7.88;;;20.40;99.90;;;;;;5075343;28;20070;-75
2021/06/22 03:53:58;;;;;;;12.38;9.27;;;20.50;99.90;;;;;;5088408;28;20071;-73
2021/06/22 03:56:26;;;;;;;12.98;9.60;;;20.50;99.90;;;;;;5075006;28;20045;-73
2021/06/22 03:58:53;;;;;;;13.70;10.38;;;20.40;99.90;;;;;;5075212;28;20044;-72
2021/06/22 04:01:19;;;;;;;10.48;9.07;;;20.30;99.90;;;;;;5083376;28;20074;-73
2021/06/22 04:03:46;;;;;;;23.45;14.82;;;20.30;99.90;;;;;;5095562;28;20051;-74
2021/06/22 04:06:13;;;;;;;10.50;8.85;;;20.40;99.90;;;;;;5087051;28;20098;-74
2021/06/22 04:08:42;;;;;;;10.95;9.05;;;20.40;99.90;;;;;;5074950;28;20076;-75
2021/06/22 04:11:09;;;;;;;11.52;8.82;;;20.30;99.90;;;;;;5075364;28;20392;-78
2021/06/22 04:13:35;;;;;;;10.73;8.60;;;20.40;99.90;;;;;;5075444;28;20047;-76
2021/06/22 04:16:02;;;;;;;12.35;7.85;;;20.40;99.90;;;;;;5070338;28;20048;-72
2021/06/22 04:18:29;;;;;;;11.18;8.65;;;20.40;99.90;;;;;;5075887;28;20044;-73
2021/06/22 04:20:56;;;;;;;8.65;7.75;;;20.50;99.90;;;;;;5074829;28;20056;-74
2021/06/22 04:23:22;;;;;;;11.45;7.55;;;20.50;99.90;;;;;;5074780;28;20056;-73
2021/06/22 04:25:50;;;;;;;14.95;10.68;;;20.50;99.90;;;;;;5083288;28;20385;-76
2021/06/22 04:28:18;;;;;;;8.52;7.47;;;20.40;99.90;;;;;;5095115;28;20419;-75
2021/06/22 04:30:45;;;;;;;10.88;7.80;;;20.40;99.90;;;;;;5085511;28;20048;-75
2021/06/22 04:33:13;;;;;;;17.77;9.90;;;20.40;99.90;;;;;;5074828;28;20101;-75
2021/06/22 04:35:40;;;;;;;11.52;9.25;;;20.30;99.90;;;;;;5074084;28;20040;-72
2021/06/22 04:38:09;;;;;;;11.20;9.00;;;20.30;99.90;;;;;;5079273;28;20048;-79
2021/06/22 04:40:38;;;;;;;16.00;9.68;;;20.30;99.90;;;;;;5078892;28;20079;-74
2021/06/22 04:43:06;;;;;;;14.60;8.90;;;20.40;99.90;;;;;;5074938;28;20129;-74
2021/06/22 04:45:33;;;;;;;16.90;10.73;;;20.40;99.90;;;;;;5089068;28;20044;-73
2021/06/22 04:48:00;;;;;;;19.83;12.77;;;20.60;99.90;;;;;;5094422;28;20071;-74
2021/06/22 04:50:28;;;;;;;13.80;8.25;;;20.70;99.90;;;;;;5092466;28;20118;-77
2021/06/22 04:52:56;;;;;;;14.38;9.75;;;20.80;99.90;;;;;;5075155;28;20053;-76
2021/06/22 04:55:25;;;;;;;10.55;8.40;;;20.70;99.90;;;;;;5084512;28;20487;-72
2021/06/22 04:57:52;;;;;;;13.57;9.02;;;20.70;99.90;;;;;;5075533;28;20102;-72
2021/06/22 05:00:21;;;;;;;12.23;10.32;;;20.60;99.90;;;;;;5082925;28;20125;-71
2021/06/22 05:02:48;;;;;;;14.00;10.23;;;20.70;99.90;;;;;;5094028;28;20486;-70
2021/06/22 05:05:15;;;;;;;12.57;8.95;;;20.60;99.90;;;;;;5090209;28;20041;-77
2021/06/22 05:07:42;;;;;;;12.63;8.95;;;20.60;99.90;;;;;;5090960;28;20474;-72
2021/06/22 05:10:10;;;;;;;12.38;8.68;;;20.40;99.90;;;;;;5094329;28;20075;-74
2021/06/22 05:12:37;;;;;;;13.30;9.93;;;20.50;99.90;;;;;;5082926;28;20068;-73
2021/06/22 05:15:05;;;;;;;13.38;9.68;;;20.50;99.90;;;;;;5077796;28;20045;-73
2021/06/22 05:17:33;;;;;;;14.20;9.13;;;20.40;99.90;;;;;;5080610;28;20090;-72
2021/06/22 05:19:59;;;;;;;13.35;9.45;;;20.40;99.90;;;;;;5075433;28;20109;-72
2021/06/22 05:22:26;;;;;;;11.70;9.98;;;20.30;99.90;;;;;;5090660;28;20074;-72
2021/06/22 05:24:52;;;;;;;11.95;9.40;;;20.30;99.90;;;;;;5090516;28;20043;-75
2021/06/22 05:27:19;;;;;;;17.02;9.52;;;20.30;99.90;;;;;;5093842;28;20048;-76
2021/06/22 05:29:46;;;;;;;12.77;9.85;;;20.30;99.90;;;;;;5093728;28;20399;-72
2021/06/22 05:32:12;;;;;;;19.55;12.13;;;20.30;99.90;;;;;;5080210;28;20044;-73
2021/06/22 05:34:40;;;;;;;12.00;8.15;;;20.30;99.90;;;;;;5073912;28;20086;-72
2021/06/22 05:37:07;;;;;;;15.07;11.45;;;20.30;99.90;;;;;;5073417;28;20041;-74
2021/06/22 05:39:33;;;;;;;18.52;12.07;;;20.30;99.90;;;;;;5089083;28;20067;-73
2021/06/22 05:42:00;;;;;;;15.40;12.15;;;20.30;99.90;;;;;;5093437;28;20072;-71
2021/06/22 05:44:26;;;;;;;12.15;10.13;;;20.30;99.90;;;;;;5093695;28;20079;-72
2021/06/22 05:46:53;;;;;;;14.05;9.32;;;20.30;99.90;;;;;;5079654;28;20093;-74
2021/06/22 05:49:20;;;;;;;13.50;9.00;;;20.30;99.90;;;;;;5077237;28;20056;-74
2021/06/22 05:51:48;;;;;;;14.20;9.93;;;20.50;99.90;;;;;;5080404;28;20071;-78
2021/06/22 05:54:14;;;;;;;15.38;10.02;;;20.60;99.90;;;;;;5087263;28;20098;-75
2021/06/22 05:56:41;;;;;;;19.45;13.40;;;20.60;99.90;;;;;;5087818;28;20060;-76
2021/06/22 05:59:08;;;;;;;18.95;11.07;;;20.50;99.90;;;;;;5077671;28;20492;-73
2021/06/22 06:01:44;;;;;;;19.45;13.15;;;20.40;99.90;;;;;;5077675;28;20045;-78
2021/06/22 06:04:10;;;;;;;20.60;12.20;;;20.40;99.90;;;;;;5076899;28;20124;-79
2021/06/22 06:06:40;;;;;;;22.65;14.73;;;20.30;99.90;;;;;;5076578;28;20048;-76
2021/06/22 06:09:08;;;;;;;21.42;12.48;;;20.50;99.90;;;;;;5087495;28;20431;-74
2021/06/22 06:11:35;;;;;;;22.90;13.65;;;20.30;99.90;;;;;;5082125;28;20125;-72
2021/06/22 06:14:01;;;;;;;27.20;14.63;;;20.40;99.90;;;;;;5093166;28;20396;-73
2021/06/22 06:16:28;;;;;;;19.98;13.52;;;20.50;99.90;;;;;;5088584;28;20036;-77
2021/06/22 06:18:54;;;;;;;25.15;14.60;;;20.30;99.90;;;;;;5083456;28;20595;-78
2021/06/22 06:21:23;;;;;;;22.35;15.15;;;20.50;99.90;;;;;;5094569;28;20093;-73
2021/06/22 06:23:50;;;;;;;22.88;13.55;;;20.50;99.90;;;;;;5089914;28;20037;-71
2021/06/22 06:26:18;;;;;;;29.40;13.45;;;20.50;99.90;;;;;;5072335;28;20048;-73
2021/06/22 06:28:47;;;;;;;23.83;14.05;;;20.50;99.90;;;;;;5087084;28;20048;-72
2021/06/22 06:31:14;;;;;;;22.23;13.55;;;20.40;99.90;;;;;;5091181;28;20101;-75
2021/06/22 06:33:40;;;;;;;27.42;16.65;;;20.30;99.90;;;;;;5082247;28;20045;-72
2021/06/22 06:36:07;;;;;;;23.33;13.43;;;20.40;99.90;;;;;;5072367;28;20063;-74
2021/06/22 06:38:34;;;;;;;21.27;12.52;;;20.40;99.90;;;;;;5092168;28;20097;-73
2021/06/22 06:41:01;;;;;;;24.77;13.70;;;20.40;99.90;;;;;;5076874;28;20041;-74
2021/06/22 06:43:28;;;;;;;25.33;13.75;;;20.30;99.90;;;;;;5073160;28;20044;-73
2021/06/22 06:45:55;;;;;;;23.70;13.40;;;20.30;99.90;;;;;;5072567;28;20064;-75
2021/06/22 06:48:23;;;;;;;31.42;17.50;;;20.20;99.90;;;;;;5072322;28;20396;-71
2021/06/22 06:50:50;;;;;;;29.88;15.32;;;20.20;99.90;;;;;;5072066;28;20048;-73
2021/06/22 06:53:16;;;;;;;23.77;13.52;;;20.20;99.90;;;;;;5089848;28;20066;-76
2021/06/22 06:55:45;;;;;;;25.00;12.63;;;20.10;99.90;;;;;;5092214;28;20052;-76
2021/06/22 06:58:11;;;;;;;18.73;11.07;;;20.20;99.90;;;;;;5088626;28;20386;-77
2021/06/22 07:00:41;;;;;;;20.88;11.23;;;20.20;99.90;;;;;;5074922;28;20055;-76
2021/06/22 07:03:08;;;;;;;16.77;10.98;;;20.10;99.90;;;;;;5092144;28;20148;-74
2021/06/22 07:05:36;;;;;;;19.40;10.65;;;20.20;99.90;;;;;;5093571;28;20076;-76
2021/06/22 07:08:03;;;;;;;20.48;12.00;;;20.20;99.90;;;;;;5091886;28;20040;-75
2021/06/22 07:10:31;;;;;;;15.43;10.38;;;20.10;99.90;;;;;;5095811;28;20079;-77
2021/06/22 07:13:00;;;;;;;22.52;15.52;;;19.90;99.90;;;;;;5092916;28;20052;-72
2021/06/22 07:15:27;;;;;;;16.88;9.05;;;19.90;99.90;;;;;;5091948;28;20054;-73
2021/06/22 07:17:55;;;;;;;24.02;14.02;;;19.60;99.90;;;;;;5077645;28;20048;-73
2021/06/22 07:20:21;;;;;;;14.68;9.40;;;19.50;99.90;;;;;;5071882;28;20445;-72
2021/06/22 07:22:48;;;;;;;15.40;8.57;;;19.40;99.90;;;;;;5071781;28;20068;-74
2021/06/22 07:25:16;;;;;;;12.40;7.57;;;19.40;99.90;;;;;;5071801;28;20667;-74
2021/06/22 07:27:43;;;;;;;12.50;8.05;;;19.30;99.90;;;;;;5071930;28;20040;-73
2021/06/22 07:30:11;;;;;;;17.65;8.13;;;19.10;99.90;;;;;;5083262;28;20044;-76
2021/06/22 07:32:37;;;;;;;18.55;7.07;;;19.20;99.90;;;;;;5091705;28;20416;-73
2021/06/22 07:35:06;;;;;;;6.15;4.53;;;19.20;99.90;;;;;;5092356;28;20071;-72
2021/06/22 07:37:32;;;;;;;11.90;5.10;;;19.30;99.90;;;;;;5067127;28;20068;-71
2021/06/22 07:39:59;;;;;;;4.80;4.07;;;19.30;99.90;;;;;;5073119;28;20079;-72
2021/06/22 07:42:26;;;;;;;7.95;4.35;;;19.30;99.90;;;;;;5071899;28;20044;-69
2021/06/22 07:44:52;;;;;;;10.05;4.65;;;19.30;99.90;;;;;;5071499;28;20045;-72
2021/06/22 07:47:19;;;;;;;12.43;5.45;;;19.50;99.90;;;;;;5071325;28;20094;-72
2021/06/22 07:49:45;;;;;;;6.53;4.03;;;19.30;99.90;;;;;;5072055;28;20044;-74
2021/06/22 07:52:14;;;;;;;15.52;8.63;;;19.50;99.90;;;;;;5071572;28;20087;-73
2021/06/22 07:54:41;;;;;;;4.72;4.15;;;19.60;99.90;;;;;;5071764;28;20071;-72
2021/06/22 07:57:08;;;;;;;7.55;4.57;;;19.60;99.90;;;;;;5076030;28;20075;-77
2021/06/22 07:59:35;;;;;;;11.00;4.78;;;19.70;99.90;;;;;;5072907;28;20045;-79
2021/06/22 08:02:02;;;;;;;6.43;4.05;;;19.70;99.90;;;;;;5082737;28;20094;-75
2021/06/22 08:04:29;;;;;;;8.90;6.57;;;19.80;99.90;;;;;;5092654;28;20047;-79
2021/06/22 08:06:55;;;;;;;7.03;4.72;;;19.80;99.90;;;;;;5092519;28;20047;-73
2021/06/22 08:09:23;;;;;;;4.72;3.80;;;19.90;99.90;;;;;;5093486;28;20044;-72
2021/06/22 08:11:50;;;;;;;10.98;7.43;;;19.90;99.90;;;;;;5091403;28;20040;-74
2021/06/22 08:14:17;;;;;;;21.42;12.10;;;19.70;99.90;;;;;;5088077;28;20044;-76
2021/06/22 08:16:43;;;;;;;6.93;6.03;;;19.70;99.90;;;;;;5077179;28;20401;-76
2021/06/22 08:19:10;;;;;;;8.52;5.85;;;19.70;99.90;;;;;;5075212;28;20076;-76
2021/06/22 08:21:37;;;;;;;7.95;5.22;;;19.60;99.90;;;;;;5075121;28;20041;-73
2021/06/22 08:24:04;;;;;;;10.10;7.35;;;19.60;99.90;;;;;;5075149;28;20041;-73
2021/06/22 08:26:32;;;;;;;6.93;4.40;;;19.60;99.90;;;;;;5075915;28;20071;-72
2021/06/22 08:28:59;;;;;;;4.85;4.25;;;19.50;99.90;;;;;;5074408;28;20064;-76
2021/06/22 08:31:25;;;;;;;5.20;4.57;;;19.50;99.90;;;;;;5074894;28;20052;-75
2021/06/22 08:33:52;;;;;;;6.05;4.72;;;19.50;99.90;;;;;;5086386;28;20040;-76
2021/06/22 08:36:18;;;;;;;6.70;4.20;;;19.50;99.90;;;;;;5089517;28;20078;-75
2021/06/22 08:38:45;;;;;;;7.75;5.10;;;19.50;99.90;;;;;;5074736;28;20045;-72
2021/06/22 08:41:13;;;;;;;5.15;3.88;;;19.50;99.90;;;;;;5074599;28;20068;-71
2021/06/22 08:43:41;;;;;;;8.00;4.90;;;19.60;99.90;;;;;;5077467;28;20091;-73
2021/06/22 08:46:09;;;;;;;6.15;3.80;;;19.70;99.90;;;;;;5090472;28;20056;-74
2021/06/22 08:48:36;;;;;;;5.47;4.15;;;19.70;99.90;;;;;;5074305;28;20048;-72
2021/06/22 08:51:03;;;;;;;5.38;4.63;;;19.80;99.90;;;;;;5083257;28;20072;-74
2021/06/22 08:53:30;;;;;;;5.60;3.70;;;19.80;99.90;;;;;;5081273;28;20423;-73
2021/06/22 08:55:57;;;;;;;5.45;3.42;;;19.90;99.90;;;;;;5074415;28;20045;-76
2021/06/22 08:58:23;;;;;;;7.88;6.60;;;19.80;99.90;;;;;;5093369;28;20082;-72
2021/06/22 09:00:54;;;;;;;5.13;3.90;;;19.80;99.90;;;;;;5089311;28;20067;-75
2021/06/22 09:03:24;;;;;;;3.28;2.83;;;19.80;99.90;;;;;;5075795;28;20056;-76
2021/06/22 09:05:54;;;;;;;5.50;3.95;;;19.80;99.90;;;;;;5094857;28;20105;-73
2021/06/22 09:08:21;;;;;;;5.85;3.65;;;19.80;99.90;;;;;;5093542;28;20430;-70
2021/06/22 09:10:50;;;;;;;3.47;3.05;;;19.80;99.90;;;;;;5093403;28;20048;-72
2021/06/22 09:13:18;;;;;;;4.32;2.97;;;19.90;99.90;;;;;;5092296;28;20044;-73
2021/06/22 09:15:46;;;;;;;4.47;3.85;;;19.90;99.90;;;;;;5070518;28;20058;-75
2021/06/22 09:18:26;;;;;;;6.18;4.90;;;19.90;99.90;;;;;;5088288;28;20135;-73
2021/06/22 09:20:54;;;;;;;5.88;3.70;;;19.70;99.90;;;;;;5094295;28;20044;-75
2021/06/22 09:23:22;;;;;;;3.90;2.92;;;19.60;99.90;;;;;;5089225;28;20097;-75
2021/06/22 09:25:51;;;;;;;4.78;3.60;;;19.40;99.90;;;;;;5091369;28;20071;-72
2021/06/22 09:28:22;;;;;;;4.72;4.13;;;19.30;99.90;;;;;;5073781;28;20101;-74
2021/06/22 09:30:55;;;;;;;6.47;4.05;;;19.40;99.90;;;;;;5083820;28;20434;-73
2021/06/22 09:33:35;;;;;;;5.18;4.35;;;19.40;99.90;;;;;;5077611;28;20101;-73
2021/06/22 09:36:14;;;;;;;5.30;3.80;;;19.40;99.90;;;;;;5096769;28;20451;-77
2021/06/22 09:38:42;;;;;;;4.88;3.47;;;19.30;99.90;;;;;;5063703;28;20044;-72
2021/06/22 09:41:18;;;;;;;6.57;5.15;;;19.30;99.90;;;;;;5073548;28;20052;-72
2021/06/22 09:43:48;;;;;;;6.50;4.28;;;19.30;99.90;;;;;;5073618;28;20123;-71
2021/06/22 09:46:17;;;;;;;11.43;7.18;;;19.40;99.90;;;;;;5072865;28;20110;-76
2021/06/22 09:48:58;;;;;;;6.88;5.13;;;19.30;99.90;;;;;;5073698;28;20049;-75
2021/06/22 09:51:34;;;;;;;4.60;3.97;;;19.30;99.90;;;;;;5073223;28;20390;-75
2021/06/22 09:54:13;;;;;;;5.57;4.90;;;19.40;99.90;;;;;;5080701;28;20109;-73
2021/06/22 09:56:56;;;;;;;5.25;4.22;;;19.10;99.90;;;;;;5085760;28;20063;-75
2021/06/22 09:59:23;;;;;;;4.80;3.70;;;19.20;99.90;;;;;;5074784;28;20052;-75
2021/06/22 10:01:52;;;;;;;8.30;4.40;;;19.20;99.90;;;;;;5073905;28;20484;-75
2021/06/22 10:04:22;;;;;;;6.75;4.00;;;19.30;99.90;;;;;;5073011;28;20067;-75
2021/06/22 10:06:52;;;;;;;6.97;5.38;;;19.30;99.90;;;;;;5072638;28;20044;-76
2021/06/22 10:09:24;;;;;;;17.80;11.38;;;19.20;99.90;;;;;;5073015;28;20045;-76
2021/06/22 10:11:58;;;;;;;11.50;8.68;;;19.20;99.90;;;;;;5073017;28;20637;-76
2021/06/22 10:14:28;;;;;;;17.20;9.93;;;19.10;99.90;;;;;;5073196;28;20439;-76
2021/06/22 10:16:56;;;;;;;10.57;8.20;;;19.30;99.90;;;;;;5072739;28;20040;-75
2021/06/22 10:19:24;;;;;;;9.13;5.75;;;19.20;99.90;;;;;;5072611;28;20511;-76
2021/06/22 10:21:52;;;;;;;6.18;5.47;;;19.30;99.90;;;;;;5072842;28;20461;-77
2021/06/22 10:24:19;;;;;;;5.47;4.78;;;19.30;99.90;;;;;;5072852;28;20044;-76
2021/06/22 10:26:46;;;;;;;4.95;4.30;;;19.40;99.90;;;;;;5072784;28;20056;-76
2021/06/22 10:29:28;;;;;;;6.07;4.60;;;19.40;99.90;;;;;;5072751;28;20063;-75
2021/06/22 10:31:56;;;;;;;6.70;3.90;;;19.50;99.90;;;;;;5072614;28;20059;-75
2021/06/22 10:34:24;;;;;;;5.30;4.80;;;19.40;99.90;;;;;;5072559;28;20454;-76
2021/06/22 10:37:04;;;;;;;4.50;3.78;;;19.40;99.90;;;;;;5071957;28;20537;-75
2021/06/22 10:39:34;;;;;;;6.43;5.15;;;19.60;99.90;;;;;;5072674;28;20393;-75
2021/06/22 10:42:09;;;;;;;5.87;4.27;;;19.80;99.90;;;;;;5072977;28;20040;-75
2021/06/22 10:44:43;;;;;;;6.38;4.97;;;19.80;99.90;;;;;;5072183;28;20330;-75
2021/06/22 10:47:40;;;;;;;4.35;4.05;;;19.90;99.90;;;;;;5072265;28;20098;-75
2021/06/22 10:50:15;;;;;;;4.90;3.40;;;19.70;99.90;;;;;;5072388;28;20474;-75
2021/06/22 10:53:00;;;;;;;4.85;4.22;;;19.80;99.90;;;;;;5072405;28;20053;-75
2021/06/22 10:56:03;;;;;;;4.07;3.58;;;19.90;99.90;;;;;;5072238;28;20125;-75
2021/06/22 10:58:29;;;;;;;6.68;4.05;;;19.90;99.90;;;;;;5072302;28;20060;-75
2021/06/22 11:01:23;;;;;;;5.40;4.90;;;20.10;99.90;;;;;;5072190;28;20049;-75
2021/06/22 11:04:06;;;;;;;7.85;6.25;;;20.30;99.90;;;;;;5072549;28;20053;-75
2021/06/22 11:06:34;;;;;;;6.13;4.88;;;20.50;99.90;;;;;;5070362;28;20119;-75
2021/06/22 11:09:18;;;;;;;4.20;3.90;;;20.60;99.90;;;;;;5073485;28;20066;-75
2021/06/22 11:11:45;;;;;;;5.22;4.20;;;20.60;99.90;;;;;;5072166;28;20064;-76
2021/06/22 11:14:17;;;;;;;4.50;4.10;;;20.50;99.90;;;;;;5072637;28;20052;-76
2021/06/22 11:16:43;;;;;;;4.53;4.10;;;20.50;99.90;;;;;;5072089;28;20040;-75
2021/06/22 11:19:12;;;;;;;5.25;4.63;;;20.60;99.90;;;;;;5072149;28;20558;-75
2021/06/22 11:21:54;;;;;;;7.60;5.18;;;20.50;99.90;;;;;;5072195;28;20052;-75
2021/06/22 11:24:21;;;;;;;;;;;20.40;99.90;;;;;;5072620;28;20640;-75
2021/06/22 11:27:05;;;;;;;7.03;6.32;;;20.50;99.90;;;;;;5071651;28;19952;-76
2021/06/22 11:29:48;;;;;;;12.60;8.32;;;20.70;99.90;;;;;;5072239;28;20045;-75
2021/06/22 11:32:36;;;;;;;6.93;5.07;;;20.70;99.90;;;;;;5071796;28;20543;-81
2021/06/22 11:35:04;;;;;;;7.05;5.32;;;20.60;99.90;;;;;;5072117;28;20102;-76
2021/06/22 11:37:32;;;;;;;5.63;4.93;;;20.40;99.90;;;;;;5071566;28;20072;-76
2021/06/22 11:40:06;;;;;;;6.57;5.00;;;20.40;99.90;;;;;;5072132;28;20044;-75
2021/06/22 11:42:36;;;;;;;16.50;12.10;;;20.30;99.90;;;;;;5072058;28;20075;-75
2021/06/22 11:45:22;;;;;;;7.47;6.07;;;20.40;99.90;;;;;;5071735;28;20055;-76
2021/06/22 11:47:57;;;;;;;12.52;9.43;;;20.20;99.90;;;;;;5071863;28;20045;-76
2021/06/22 11:50:36;;;;;;;5.07;4.57;;;20.20;99.90;;;;;;5074333;28;20507;-76
2021/06/22 11:53:07;;;;;;;12.20;9.35;;;20.00;99.90;;;;;;5075302;28;20044;-76
2021/06/22 11:55:51;;;;;;;7.10;4.53;;;20.10;99.90;;;;;;5075672;28;20049;-76
2021/06/22 11:58:21;;;;;;;8.82;7.13;;;20.00;99.90;;;;;;5075506;28;20139;-76
2021/06/22 12:00:47;;;;;;;11.73;9.43;;;19.90;99.90;;;;;;5075484;28;20048;-76
2021/06/22 12:03:14;;;;;;;6.65;5.70;;;19.80;99.90;;;;;;5075291;28;20048;-75
2021/06/22 12:05:40;;;;;;;7.53;4.65;;;19.90;99.90;;;;;;5075520;28;20091;-76
2021/06/22 12:08:10;;;;;;;4.22;3.83;;;19.90;99.90;;;;;;5075186;28;20439;-75
2021/06/22 12:10:46;;;;;;;5.60;4.97;;;20.10;99.90;;;;;;5075480;28;20048;-75
2021/06/22 12:13:14;;;;;;;8.52;5.55;;;20.10;99.90;;;;;;5075217;28;20051;-75
2021/06/22 12:15:43;;;;;;;4.38;3.78;;;20.20;99.90;;;;;;5075218;28;20083;-75
2021/06/22 12:18:10;;;;;;;7.75;5.18;;;20.10;99.90;;;;;;5075080;28;20118;-75
2021/06/22 12:20:38;;;;;;;7.32;4.60;;;20.10;99.90;;;;;;5075319;28;20094;-75
2021/06/22 12:23:08;;;;;;;6.30;3.80;;;20.10;99.90;;;;;;5075039;28;20098;-76
2021/06/22 12:25:37;;;;;;;6.15;4.78;;;20.10;99.90;;;;;;5074911;28;20048;-75
2021/06/22 12:28:05;;;;;;;6.82;4.72;;;20.20;99.90;;;;;;5074989;28;20082;-76
2021/06/22 12:30:37;;;;;;;6.82;5.88;;;20.30;99.90;;;;;;5074981;28;20135;-76
2021/06/22 12:33:08;;;;;;;4.88;4.22;;;20.40;99.90;;;;;;5074973;28;20044;-76
2021/06/22 12:35:35;;;;;;;8.57;5.80;;;20.50;99.90;;;;;;5074712;28;20044;-76
2021/06/22 12:38:05;;;;;;;4.82;4.32;;;20.90;99.90;;;;;;5074923;28;20076;-75
2021/06/22 12:43:20;;;;;;;5.55;4.43;;;21.70;99.90;;;;;;5074620;28;20049;-76
2021/06/22 12:46:01;;;;;;;7.03;4.53;;;22.10;99.90;;;;;;5074072;28;20044;-76
2021/06/22 12:48:28;;;;;;;3.65;2.88;;;22.20;99.90;;;;;;5074487;28;20048;-75
2021/06/22 12:50:54;;;;;;;4.22;3.88;;;22.30;99.90;;;;;;5074424;28;20068;-77
2021/06/22 12:53:21;;;;;;;7.57;5.68;;;22.20;99.90;;;;;;5074317;28;20045;-76
2021/06/22 12:55:51;;;;;;;6.47;4.95;;;22.00;99.90;;;;;;5073930;28;20044;-77